Time;durP1;ratioP1;P1;durP2;ratioP2;P2;SDS_P1;SDS_P2;PMS_P1;PMS_P2;Temp;Humidity;BMP_temperature;BMP_pressure;BME280_temperature;BME280_humidity;BME280_pressure;Samples;Min_cycle;Max_cycle;Signal;HPM_P1;HPM_P2
2022/04/05 00:02:21;;;;;;;0.43;0.43;;;6.70;99.90;;;;;;4986631;28;20242;-82
2022/04/05 00:04:46;;;;;;;0.63;0.43;;;6.70;99.90;;;;;;4987298;28;20227;-82
2022/04/05 00:07:12;;;;;;;0.30;0.30;;;6.70;99.90;;;;;;4988056;28;20210;-82
2022/04/05 00:09:37;;;;;;;2.03;0.50;;;6.70;99.90;;;;;;4987946;28;20171;-83
2022/04/05 00:12:03;;;;;;;0.20;0.20;;;6.70;99.90;;;;;;4987721;28;20246;-83
2022/04/05 00:14:29;;;;;;;0.20;0.20;;;6.70;99.90;;;;;;4987180;28;20211;-82
2022/04/05 00:16:54;;;;;;;0.10;0.10;;;6.70;99.90;;;;;;4995325;28;20665;-82
2022/04/05 00:19:21;;;;;;;0.30;0.30;;;6.70;99.90;;;;;;4986655;28;20287;-83
2022/04/05 00:21:48;;;;;;;0.27;0.27;;;6.70;99.90;;;;;;4988602;28;20672;-84
2022/04/05 00:24:14;;;;;;;0.60;0.60;;;6.70;99.90;;;;;;4986692;28;20690;-84
2022/04/05 00:26:40;;;;;;;1.40;0.33;;;6.70;99.90;;;;;;4986280;28;20192;-82
2022/04/05 00:29:05;;;;;;;0.47;0.47;;;6.70;99.90;;;;;;4986327;28;21282;-82
2022/04/05 00:31:31;;;;;;;0.40;0.37;;;6.70;99.90;;;;;;4986243;28;20250;-82
2022/04/05 00:33:56;;;;;;;0.37;0.33;;;6.70;99.90;;;;;;4986869;28;20198;-83
2022/04/05 00:36:22;;;;;;;0.40;0.40;;;6.70;99.90;;;;;;4987418;28;20196;-82
2022/04/05 00:38:48;;;;;;;0.30;0.30;;;6.80;99.90;;;;;;4986690;28;20183;-82
2022/04/05 00:41:13;;;;;;;0.10;0.10;;;6.80;99.90;;;;;;4986662;28;20194;-83
2022/04/05 00:43:40;;;;;;;0.17;0.17;;;6.80;99.90;;;;;;4987149;28;20211;-82
2022/04/05 00:46:06;;;;;;;0.30;0.30;;;6.90;99.90;;;;;;4986121;28;20583;-82
2022/04/05 00:48:52;;;;;;;0.60;0.60;;;6.90;99.90;;;;;;4985904;28;20195;-83
2022/04/05 00:51:19;;;;;;;0.40;0.40;;;6.90;99.90;;;;;;5004733;28;20281;-82
2022/04/05 00:53:48;;;;;;;0.33;0.33;;;6.90;99.90;;;;;;5004588;28;20192;-82
2022/04/05 00:56:15;;;;;;;0.83;0.80;;;6.90;99.90;;;;;;4989573;28;20554;-82
2022/04/05 00:58:44;;;;;;;0.67;0.67;;;6.90;99.90;;;;;;4989289;28;20590;-84
2022/04/05 01:01:15;;;;;;;0.30;0.30;;;6.90;99.90;;;;;;4989886;28;20586;-82
2022/04/05 01:03:48;;;;;;;1.67;0.70;;;6.90;99.90;;;;;;4981691;28;20214;-82
2022/04/05 01:06:19;;;;;;;1.27;0.77;;;6.90;99.90;;;;;;4994041;28;20176;-83
2022/04/05 01:08:48;;;;;;;0.37;0.37;;;6.90;99.90;;;;;;5007556;28;20535;-84
2022/04/05 01:11:14;;;;;;;0.37;0.37;;;6.80;99.90;;;;;;4992393;28;20280;-83
2022/04/05 01:13:40;;;;;;;0.30;0.30;;;6.80;99.90;;;;;;4998846;28;20204;-83
2022/04/05 01:16:06;;;;;;;0.10;0.10;;;6.80;99.90;;;;;;4993943;28;20218;-83
2022/04/05 01:18:33;;;;;;;0.77;0.50;;;6.80;99.90;;;;;;4990266;28;20563;-82
2022/04/05 01:21:00;;;;;;;0.30;0.30;;;6.80;99.90;;;;;;4991965;28;20199;-83
2022/04/05 01:23:26;;;;;;;0.77;0.50;;;6.80;99.90;;;;;;4990959;28;20210;-83
2022/04/05 01:25:52;;;;;;;0.83;0.50;;;6.80;99.90;;;;;;4990931;28;20660;-83
2022/04/05 01:28:21;;;;;;;0.83;0.83;;;6.80;99.90;;;;;;4990910;28;20184;-83
2022/04/05 01:30:46;;;;;;;0.10;0.10;;;6.80;99.90;;;;;;4990621;28;20187;-82
2022/04/05 01:33:13;;;;;;;0.13;0.13;;;6.80;99.90;;;;;;4991492;28;20198;-82
2022/04/05 01:35:39;;;;;;;0.17;0.17;;;6.80;99.90;;;;;;4989520;28;20223;-83
2022/04/05 01:38:06;;;;;;;0.80;0.50;;;6.70;99.90;;;;;;4990769;28;20214;-82
2022/04/05 01:40:32;;;;;;;0.60;0.60;;;6.80;99.90;;;;;;4991235;28;20214;-82
2022/04/05 01:42:57;;;;;;;0.30;0.30;;;6.80;99.90;;;;;;4990505;28;20195;-82
2022/04/05 01:45:23;;;;;;;0.30;0.30;;;6.80;99.90;;;;;;4990947;28;20719;-83
2022/04/05 01:47:48;;;;;;;0.40;0.33;;;6.80;99.90;;;;;;4992289;28;20180;-82
2022/04/05 01:50:14;;;;;;;0.47;0.47;;;6.80;99.90;;;;;;4990737;28;20190;-83
2022/04/05 01:52:39;;;;;;;0.47;0.47;;;6.80;99.90;;;;;;4990424;28;20191;-83
2022/04/05 01:55:06;;;;;;;0.40;0.40;;;6.80;99.90;;;;;;4990372;28;20657;-82
2022/04/05 01:57:32;;;;;;;0.20;0.20;;;6.80;99.90;;;;;;4991097;28;20215;-83
2022/04/05 01:59:58;;;;;;;0.70;0.53;;;6.80;99.90;;;;;;4990212;28;20222;-82
2022/04/05 02:02:23;;;;;;;1.40;0.67;;;6.80;99.90;;;;;;4989901;28;21020;-83
2022/04/05 02:04:49;;;;;;;0.90;0.83;;;6.80;99.90;;;;;;4991487;28;20274;-84
2022/04/05 02:07:16;;;;;;;0.30;0.23;;;6.80;99.90;;;;;;4990399;28;20180;-82
2022/04/05 02:09:43;;;;;;;0.30;0.30;;;6.90;99.90;;;;;;4989663;28;20262;-83
2022/04/05 02:12:09;;;;;;;0.33;0.33;;;6.80;99.90;;;;;;4990578;28;20176;-82
2022/04/05 02:14:36;;;;;;;0.47;0.47;;;6.90;99.90;;;;;;4990939;28;20289;-82
2022/04/05 02:17:02;;;;;;;0.43;0.43;;;6.90;99.90;;;;;;4990623;28;20203;-83
2022/04/05 02:19:28;;;;;;;0.40;0.40;;;6.90;99.90;;;;;;4991235;28;20184;-82
2022/04/05 02:21:53;;;;;;;0.20;0.20;;;6.90;99.90;;;;;;4990425;28;20255;-82
2022/04/05 02:24:19;;;;;;;0.23;0.23;;;6.90;99.90;;;;;;4990697;28;20246;-84
2022/04/05 02:26:44;;;;;;;0.30;0.30;;;6.90;99.90;;;;;;4998956;28;20188;-83
2022/04/05 02:29:10;;;;;;;0.83;0.20;;;6.90;99.90;;;;;;4991804;28;20285;-84
2022/04/05 02:31:35;;;;;;;0.10;0.10;;;6.90;99.90;;;;;;4990339;28;20184;-82
2022/04/05 02:34:01;;;;;;;0.40;0.27;;;6.90;99.90;;;;;;4990270;28;20184;-83
2022/04/05 02:36:26;;;;;;;0.30;0.30;;;6.90;99.90;;;;;;4990153;28;20682;-83
2022/04/05 02:38:52;;;;;;;0.37;0.33;;;6.90;99.90;;;;;;4990990;28;20195;-82
2022/04/05 02:41:18;;;;;;;0.23;0.23;;;7.00;99.90;;;;;;4989678;28;20211;-84
2022/04/05 02:43:44;;;;;;;0.60;0.60;;;7.00;99.90;;;;;;4990879;28;20212;-83
2022/04/05 02:46:11;;;;;;;0.47;0.47;;;7.00;99.90;;;;;;4989777;28;20297;-83
2022/04/05 02:48:43;;;;;;;0.20;0.20;;;7.00;99.90;;;;;;4989624;28;20183;-83
2022/04/05 02:51:12;;;;;;;0.10;0.10;;;7.00;99.90;;;;;;4999157;28;20186;-84
2022/04/05 02:53:38;;;;;;;0.43;0.40;;;7.10;99.90;;;;;;4988701;28;20183;-83
2022/04/05 02:56:04;;;;;;;0.80;0.57;;;7.00;99.90;;;;;;4989265;28;20211;-83
2022/04/05 02:58:30;;;;;;;0.50;0.50;;;7.00;99.90;;;;;;4987778;28;20240;-83
2022/04/05 03:00:55;;;;;;;0.37;0.37;;;7.00;99.90;;;;;;4989804;28;20184;-82
2022/04/05 03:03:21;;;;;;;0.20;0.20;;;7.00;99.90;;;;;;4988868;28;20648;-83
2022/04/05 03:05:47;;;;;;;0.40;0.40;;;7.10;99.90;;;;;;4988628;28;20587;-83
2022/04/05 03:08:12;;;;;;;0.33;0.33;;;7.10;99.90;;;;;;4987948;28;20206;-83
2022/04/05 03:10:38;;;;;;;0.27;0.27;;;7.10;99.90;;;;;;4988261;28;20198;-83
2022/04/05 03:13:04;;;;;;;0.60;0.60;;;7.10;99.90;;;;;;4988683;28;20187;-82
2022/04/05 03:15:30;;;;;;;0.20;0.20;;;7.10;99.90;;;;;;4989998;28;20238;-82
2022/04/05 03:17:55;;;;;;;0.27;0.27;;;7.10;99.90;;;;;;4990275;28;20195;-83
2022/04/05 03:20:21;;;;;;;1.53;0.37;;;7.10;99.90;;;;;;4989656;28;20196;-83
2022/04/05 03:22:47;;;;;;;0.30;0.30;;;7.10;99.90;;;;;;4982104;28;20428;-83
2022/04/05 03:25:13;;;;;;;0.40;0.40;;;7.10;99.90;;;;;;5004450;28;20270;-83
2022/04/05 03:27:40;;;;;;;0.30;0.30;;;7.10;99.90;;;;;;4988702;28;20187;-82
2022/04/05 03:30:08;;;;;;;0.97;0.43;;;7.20;99.90;;;;;;4989032;28;20194;-83
2022/04/05 03:32:33;;;;;;;0.40;0.40;;;7.20;99.90;;;;;;5004743;28;20182;-82
2022/04/05 03:34:59;;;;;;;1.70;0.20;;;7.20;99.90;;;;;;4988895;28;20227;-82
2022/04/05 03:37:24;;;;;;;0.07;0.07;;;7.20;99.90;;;;;;4988853;28;20188;-83
2022/04/05 03:39:50;;;;;;;0.27;0.27;;;7.20;99.90;;;;;;4988173;28;20549;-83
2022/04/05 03:42:16;;;;;;;0.20;0.20;;;7.20;99.90;;;;;;4989533;28;20321;-83
2022/04/05 03:44:41;;;;;;;0.43;0.20;;;7.20;99.90;;;;;;4987615;28;20390;-83
2022/04/05 03:47:07;;;;;;;0.77;0.77;;;7.20;99.90;;;;;;4988276;28;20188;-83
2022/04/05 03:49:32;;;;;;;0.57;0.47;;;7.20;99.90;;;;;;4988361;28;20270;-83
2022/04/05 03:51:58;;;;;;;0.20;0.20;;;7.20;99.90;;;;;;4987790;28;20180;-83
2022/04/05 03:54:23;;;;;;;0.20;0.20;;;7.20;99.90;;;;;;4987562;28;20246;-83
2022/04/05 03:56:49;;;;;;;0.43;0.43;;;7.20;99.90;;;;;;4987779;28;20271;-83
2022/04/05 03:59:14;;;;;;;0.20;0.20;;;7.20;99.90;;;;;;4986201;28;20191;-83
2022/04/05 04:01:40;;;;;;;0.33;0.33;;;7.30;99.90;;;;;;4987676;28;20250;-82
2022/04/05 04:04:05;;;;;;;2.63;0.60;;;7.30;99.90;;;;;;4988118;28;20700;-82
2022/04/05 04:06:31;;;;;;;0.20;0.20;;;7.20;99.90;;;;;;4989480;28;20184;-82
2022/04/05 04:08:57;;;;;;;0.10;0.10;;;7.30;99.90;;;;;;4989512;28;20180;-82
2022/04/05 04:11:22;;;;;;;0.20;0.20;;;7.20;99.90;;;;;;4981635;28;20195;-82
2022/04/05 04:13:48;;;;;;;0.20;0.20;;;7.20;99.90;;;;;;4983807;28;20708;-83
2022/04/05 04:16:13;;;;;;;0.20;0.20;;;7.20;99.90;;;;;;4987871;28;20184;-83
2022/04/05 04:18:39;;;;;;;0.30;0.30;;;7.20;99.90;;;;;;4986248;28;20188;-83
2022/04/05 04:21:05;;;;;;;0.20;0.20;;;7.30;99.90;;;;;;4986029;28;20184;-84
2022/04/05 04:23:30;;;;;;;0.20;0.20;;;7.20;99.90;;;;;;4985599;28;20199;-82
2022/04/05 04:25:56;;;;;;;0.30;0.30;;;7.20;99.90;;;;;;4985981;28;20219;-83
2022/04/05 04:28:22;;;;;;;0.17;0.17;;;7.20;99.90;;;;;;4985935;28;20190;-82
2022/04/05 04:30:47;;;;;;;0.50;0.50;;;7.20;99.90;;;;;;4987185;28;20192;-82
2022/04/05 04:33:13;;;;;;;0.10;0.10;;;7.20;99.90;;;;;;4987667;28;20187;-82
2022/04/05 04:35:41;;;;;;;0.30;0.30;;;7.20;99.90;;;;;;4986294;28;20238;-83
2022/04/05 04:38:08;;;;;;;0.20;0.20;;;7.20;99.90;;;;;;4987285;28;21103;-82
2022/04/05 04:40:34;;;;;;;0.20;0.20;;;7.30;99.90;;;;;;4986818;28;20249;-82
2022/04/05 04:43:00;;;;;;;0.50;0.50;;;7.30;99.90;;;;;;4987517;28;20195;-82
2022/04/05 04:45:28;;;;;;;0.20;0.20;;;7.30;99.90;;;;;;4985648;28;20321;-83
2022/04/05 04:47:54;;;;;;;0.20;0.20;;;7.20;99.90;;;;;;4986649;28;20206;-82
2022/04/05 04:50:20;;;;;;;0.27;0.27;;;7.20;99.90;;;;;;4986900;28;20187;-83
2022/04/05 04:52:46;;;;;;;0.43;0.43;;;7.30;99.90;;;;;;4984810;28;20287;-82
2022/04/05 04:55:11;;;;;;;0.60;0.60;;;7.30;99.90;;;;;;4986154;28;20243;-84
2022/04/05 04:57:37;;;;;;;0.20;0.20;;;7.20;99.90;;;;;;5002650;28;20220;-83
2022/04/05 05:00:04;;;;;;;0.50;0.50;;;7.30;99.90;;;;;;4985783;28;20250;-83
2022/04/05 05:02:30;;;;;;;0.50;0.50;;;7.20;99.90;;;;;;4987070;28;20194;-82
2022/04/05 05:04:55;;;;;;;0.13;0.13;;;7.20;99.90;;;;;;4987481;28;20219;-82
2022/04/05 05:07:21;;;;;;;0.50;0.37;;;7.30;99.90;;;;;;4987126;28;20188;-82
2022/04/05 05:09:46;;;;;;;0.10;0.10;;;7.30;99.90;;;;;;4985981;28;20199;-83
2022/04/05 05:12:12;;;;;;;0.33;0.33;;;7.30;99.90;;;;;;4985915;28;20182;-84
2022/04/05 05:14:38;;;;;;;0.33;0.33;;;7.20;99.90;;;;;;4989446;28;20211;-82
2022/04/05 05:17:04;;;;;;;0.47;0.47;;;7.20;99.90;;;;;;4986093;28;20191;-82
2022/04/05 05:19:30;;;;;;;0.30;0.30;;;7.20;99.90;;;;;;4987558;28;20704;-82
2022/04/05 05:21:55;;;;;;;0.50;0.50;;;7.20;99.90;;;;;;4987719;28;20263;-83
2022/04/05 05:24:21;;;;;;;0.40;0.40;;;7.20;99.90;;;;;;4988096;28;20234;-83
2022/04/05 05:26:46;;;;;;;0.57;0.57;;;7.20;99.90;;;;;;4988184;28;20196;-83
2022/04/05 05:29:12;;;;;;;0.73;0.43;;;7.20;99.90;;;;;;4985945;28;20195;-83
2022/04/05 05:31:38;;;;;;;0.13;0.13;;;7.20;99.90;;;;;;4985792;28;20187;-83
2022/04/05 05:34:04;;;;;;;1.40;0.30;;;7.20;99.90;;;;;;4980332;28;20195;-83
2022/04/05 05:36:30;;;;;;;0.20;0.20;;;7.20;99.90;;;;;;4982414;28;20254;-82
2022/04/05 05:38:55;;;;;;;0.40;0.40;;;7.20;99.90;;;;;;4990454;28;20672;-82
2022/04/05 05:41:21;;;;;;;0.20;0.20;;;7.20;99.90;;;;;;4988370;28;20194;-83
2022/04/05 05:43:46;;;;;;;0.30;0.30;;;7.20;99.90;;;;;;4989735;28;20200;-83
2022/04/05 05:46:13;;;;;;;0.57;0.57;;;7.20;99.90;;;;;;4988957;28;20184;-82
2022/04/05 05:48:38;;;;;;;0.20;0.20;;;7.20;99.90;;;;;;4990530;28;20208;-80
2022/04/05 05:51:05;;;;;;;0.30;0.20;;;7.20;99.90;;;;;;4990311;28;20239;-80
2022/04/05 05:53:31;;;;;;;0.40;0.30;;;7.20;99.90;;;;;;4990439;28;20172;-80
2022/04/05 05:55:57;;;;;;;0.30;0.30;;;7.20;99.90;;;;;;4989788;28;20208;-80
2022/04/05 05:58:22;;;;;;;0.20;0.20;;;7.20;99.90;;;;;;4990052;28;20187;-80
2022/04/05 06:00:48;;;;;;;0.33;0.30;;;7.20;99.90;;;;;;4988844;28;20194;-80
2022/04/05 06:03:13;;;;;;;0.10;0.10;;;7.20;99.90;;;;;;4988310;28;20184;-79
2022/04/05 06:05:39;;;;;;;0.93;0.53;;;7.30;99.90;;;;;;4985745;28;20215;-79
2022/04/05 06:08:05;;;;;;;0.20;0.20;;;7.30;99.90;;;;;;4987997;28;20179;-79
2022/04/05 06:10:31;;;;;;;0.53;0.30;;;7.30;99.90;;;;;;4986219;28;20223;-79
2022/04/05 06:12:57;;;;;;;0.40;0.40;;;7.30;99.90;;;;;;4987716;28;20215;-79
2022/04/05 06:15:25;;;;;;;0.33;0.33;;;7.40;99.90;;;;;;4989095;28;20580;-82
2022/04/05 06:17:51;;;;;;;0.40;0.40;;;7.30;99.90;;;;;;4978091;28;21846;-82
2022/04/05 06:20:19;;;;;;;0.77;0.40;;;7.40;99.90;;;;;;4988234;28;20190;-82
2022/04/05 06:22:57;;;;;;;0.30;0.30;;;7.30;99.90;;;;;;4988069;28;20270;-82
2022/04/05 06:25:29;;;;;;;0.77;0.53;;;7.40;99.90;;;;;;4989554;28;20218;-82
2022/04/05 06:27:56;;;;;;;0.73;0.63;;;7.40;99.90;;;;;;5004128;28;20184;-83
2022/04/05 06:30:22;;;;;;;0.50;0.30;;;7.40;99.90;;;;;;4987933;28;20675;-82
2022/04/05 06:32:47;;;;;;;0.40;0.40;;;7.50;99.90;;;;;;4988761;28;20541;-82
2022/04/05 06:35:14;;;;;;;0.67;0.60;;;7.40;99.90;;;;;;4988794;28;20215;-83
2022/04/05 06:37:43;;;;;;;0.30;0.30;;;7.50;99.90;;;;;;4996067;28;20188;-82
2022/04/05 06:40:09;;;;;;;1.03;0.63;;;7.50;99.90;;;;;;4988275;28;20979;-83
2022/04/05 06:42:41;;;;;;;0.40;0.40;;;7.60;99.90;;;;;;4988158;28;20184;-82
2022/04/05 06:45:08;;;;;;;3.83;0.40;;;7.50;99.90;;;;;;5002896;28;20307;-82
2022/04/05 06:47:34;;;;;;;0.20;0.20;;;7.50;99.90;;;;;;4981400;28;20188;-80
2022/04/05 06:49:59;;;;;;;0.10;0.10;;;7.50;99.90;;;;;;4990858;28;20199;-80
2022/04/05 06:52:25;;;;;;;0.20;0.20;;;7.50;99.90;;;;;;4990206;28;20199;-80
2022/04/05 06:54:50;;;;;;;0.63;0.37;;;7.50;99.90;;;;;;4991085;28;20212;-81
2022/04/05 06:57:16;;;;;;;0.20;0.20;;;7.60;99.90;;;;;;4990276;28;20226;-80
2022/04/05 06:59:42;;;;;;;0.20;0.20;;;7.60;99.90;;;;;;4990000;28;20280;-80
2022/04/05 07:02:07;;;;;;;0.30;0.30;;;7.70;99.90;;;;;;5005519;28;20262;-81
2022/04/05 07:04:33;;;;;;;2.73;0.43;;;7.70;99.90;;;;;;4991442;28;20223;-80
2022/04/05 07:06:58;;;;;;;0.20;0.20;;;7.70;99.90;;;;;;4991151;28;20191;-81
2022/04/05 07:09:24;;;;;;;0.70;0.70;;;7.80;99.90;;;;;;4990970;28;20184;-81
2022/04/05 07:11:49;;;;;;;0.20;0.20;;;7.80;99.90;;;;;;4988401;28;20192;-80
2022/04/05 07:14:15;;;;;;;1.53;0.60;;;7.80;99.90;;;;;;4990370;28;20234;-80
2022/04/05 07:16:40;;;;;;;0.40;0.40;;;7.80;99.90;;;;;;4997143;28;20183;-80
2022/04/05 07:19:06;;;;;;;0.20;0.20;;;7.80;99.90;;;;;;4990922;28;20192;-81
2022/04/05 07:21:32;;;;;;;0.30;0.30;;;7.80;99.90;;;;;;4991084;28;20503;-80
2022/04/05 07:23:57;;;;;;;0.17;0.17;;;7.80;99.90;;;;;;4989115;28;20582;-80
2022/04/05 07:26:23;;;;;;;0.30;0.30;;;7.90;99.90;;;;;;4988326;28;20241;-80
2022/04/05 07:28:48;;;;;;;0.20;0.20;;;7.90;99.90;;;;;;4988917;28;20188;-80
2022/04/05 07:31:15;;;;;;;0.50;0.50;;;8.00;99.90;;;;;;4986688;28;20278;-80
2022/04/05 07:33:41;;;;;;;0.20;0.20;;;7.90;99.90;;;;;;4986686;28;20194;-80
2022/04/05 07:36:06;;;;;;;0.20;0.20;;;7.90;99.90;;;;;;4985170;28;20592;-81
2022/04/05 07:38:32;;;;;;;0.47;0.47;;;8.00;99.90;;;;;;4987687;28;20188;-80
2022/04/05 07:40:57;;;;;;;0.27;0.27;;;8.00;99.90;;;;;;4983472;28;20239;-81
2022/04/05 07:43:25;;;;;;;0.63;0.20;;;8.10;99.90;;;;;;4982366;28;20186;-81
2022/04/05 07:45:52;;;;;;;0.77;0.77;;;8.20;99.90;;;;;;4980567;28;20234;-82
2022/04/05 07:48:19;;;;;;;0.23;0.23;;;8.30;99.90;;;;;;4983057;28;20213;-81
2022/04/05 07:50:45;;;;;;;0.47;0.23;;;8.30;99.90;;;;;;4999718;28;20185;-82
2022/04/05 07:53:11;;;;;;;0.27;0.27;;;8.30;99.90;;;;;;4982750;28;20188;-81
2022/04/05 07:55:37;;;;;;;1.17;0.33;;;8.30;99.90;;;;;;4983268;28;20218;-80
2022/04/05 07:58:02;;;;;;;0.10;0.10;;;8.30;99.90;;;;;;4980758;28;20241;-81
2022/04/05 08:00:28;;;;;;;0.20;0.20;;;8.30;99.90;;;;;;4982690;28;20190;-81
2022/04/05 08:02:54;;;;;;;0.10;0.10;;;8.40;99.90;;;;;;4983995;28;20204;-80
2022/04/05 08:05:20;;;;;;;0.10;0.10;;;8.40;99.90;;;;;;4993400;28;20242;-80
2022/04/05 08:07:46;;;;;;;1.80;0.50;;;8.40;99.90;;;;;;4985904;28;20668;-80
2022/04/05 08:10:13;;;;;;;0.30;0.30;;;8.40;99.90;;;;;;4983805;28;20796;-79
2022/04/05 08:12:47;;;;;;;0.23;0.23;;;8.40;99.90;;;;;;4986434;28;20240;-80
2022/04/05 08:15:18;;;;;;;0.30;0.30;;;8.50;99.90;;;;;;4987141;28;20622;-80
2022/04/05 08:17:45;;;;;;;0.10;0.10;;;8.50;99.90;;;;;;4986778;28;20190;-79
2022/04/05 08:20:11;;;;;;;0.37;0.37;;;8.50;99.90;;;;;;4979298;28;20194;-81
2022/04/05 08:22:37;;;;;;;0.20;0.20;;;8.50;99.90;;;;;;4984517;28;20186;-80
2022/04/05 08:25:03;;;;;;;0.10;0.10;;;8.60;99.90;;;;;;4984956;28;20224;-81
2022/04/05 08:27:29;;;;;;;0.20;0.20;;;8.50;99.90;;;;;;4987277;28;20237;-81
2022/04/05 08:29:54;;;;;;;0.20;0.20;;;8.50;99.90;;;;;;4985965;28;20186;-80
2022/04/05 08:32:20;;;;;;;0.20;0.20;;;8.60;99.90;;;;;;4985698;28;20188;-80
2022/04/05 08:34:46;;;;;;;0.20;0.20;;;8.60;99.90;;;;;;4984340;28;20637;-81
2022/04/05 08:37:12;;;;;;;0.70;0.50;;;8.50;99.90;;;;;;4986178;28;20184;-81
2022/04/05 08:39:38;;;;;;;0.13;0.13;;;8.60;99.90;;;;;;4993153;28;20206;-80
2022/04/05 08:42:05;;;;;;;0.50;0.50;;;8.60;99.90;;;;;;4985092;28;20203;-81
2022/04/05 08:44:31;;;;;;;0.10;0.10;;;8.80;99.90;;;;;;4985374;28;20246;-80
2022/04/05 08:46:59;;;;;;;0.20;0.20;;;8.90;99.90;;;;;;4979169;28;20251;-81
2022/04/05 08:49:27;;;;;;;0.53;0.53;;;8.80;99.90;;;;;;4981364;28;20291;-81
2022/04/05 08:51:52;;;;;;;0.17;0.17;;;8.80;99.90;;;;;;4986072;28;20179;-81
2022/04/05 08:54:18;;;;;;;0.10;0.10;;;8.80;99.90;;;;;;4986413;28;21175;-80
2022/04/05 08:56:44;;;;;;;0.20;0.20;;;9.00;99.90;;;;;;4986438;28;20219;-81
2022/04/05 08:59:09;;;;;;;0.10;0.10;;;9.00;99.90;;;;;;4984342;28;20224;-81
2022/04/05 09:01:35;;;;;;;0.13;0.13;;;9.00;99.90;;;;;;4987603;28;20189;-80
2022/04/05 09:04:01;;;;;;;0.10;0.10;;;9.00;99.90;;;;;;4985269;28;20214;-80
2022/04/05 09:06:29;;;;;;;0.20;0.20;;;9.00;99.90;;;;;;4985850;28;20181;-81
2022/04/05 09:08:59;;;;;;;1.47;0.30;;;9.00;99.90;;;;;;4993241;28;20192;-81
2022/04/05 09:11:28;;;;;;;0.10;0.10;;;8.90;99.90;;;;;;4978835;28;20565;-81
2022/04/05 09:13:58;;;;;;;0.10;0.10;;;9.00;99.90;;;;;;5004850;28;20682;-80
2022/04/05 09:16:34;;;;;;;0.37;0.30;;;8.90;99.90;;;;;;4991647;28;20189;-80
2022/04/05 09:19:08;;;;;;;0.73;0.63;;;8.90;99.90;;;;;;4992503;28;20193;-80
2022/04/05 09:22:03;;;;;;;0.10;0.10;;;9.00;99.90;;;;;;4990716;28;20180;-80
2022/04/05 09:24:36;;;;;;;0.30;0.30;;;9.00;99.90;;;;;;4977741;28;20219;-80
2022/04/05 09:27:02;;;;;;;0.20;0.20;;;9.20;99.90;;;;;;4989583;28;20189;-81
2022/04/05 09:29:38;;;;;;;0.20;0.20;;;9.30;99.90;;;;;;5000926;28;20190;-80
2022/04/05 09:32:04;;;;;;;0.23;0.23;;;9.40;99.90;;;;;;4985465;28;20182;-80
2022/04/05 09:34:29;;;;;;;0.10;0.10;;;9.70;99.90;;;;;;4986994;28;20235;-81
2022/04/05 09:36:55;;;;;;;0.20;0.20;;;9.80;99.90;;;;;;4989630;28;20641;-80
2022/04/05 09:39:25;;;;;;;0.20;0.20;;;10.00;99.90;;;;;;4990143;28;20183;-81
2022/04/05 09:42:08;;;;;;;0.10;0.10;;;10.20;99.90;;;;;;4988645;28;20729;-81
2022/04/05 09:44:37;;;;;;;0.47;0.47;;;10.10;99.90;;;;;;4988543;28;20304;-81
2022/04/05 09:47:04;;;;;;;0.30;0.30;;;10.20;99.90;;;;;;4988790;28;20222;-80
2022/04/05 09:49:37;;;;;;;0.10;0.10;;;10.40;99.90;;;;;;4988093;28;20251;-81
2022/04/05 09:52:34;;;;;;;0.17;0.17;;;10.60;99.90;;;;;;4989109;28;20571;-81
2022/04/05 09:55:14;;;;;;;0.13;0.13;;;10.80;99.90;;;;;;4989476;28;20216;-82
2022/04/05 09:57:39;;;;;;;0.10;0.10;;;11.20;99.90;;;;;;4988884;28;20187;-81
2022/04/05 10:00:15;;;;;;;0.30;0.30;;;11.40;99.90;;;;;;4988284;28;22334;-81
2022/04/05 10:03:03;;;;;;;0.10;0.10;;;11.50;99.90;;;;;;4987773;28;20195;-81
2022/04/05 10:05:30;;;;;;;0.20;0.20;;;11.40;99.90;;;;;;4989938;28;20274;-81
2022/04/05 10:07:56;;;;;;;0.10;0.10;;;11.40;99.90;;;;;;4988826;28;21088;-81
2022/04/05 10:10:23;;;;;;;0.20;0.20;;;11.40;99.90;;;;;;4989285;28;20190;-81
2022/04/05 10:12:50;;;;;;;0.13;0.13;;;11.50;99.90;;;;;;4988392;28;20196;-80
2022/04/05 10:15:16;;;;;;;0.20;0.20;;;11.90;99.90;;;;;;4987044;28;20214;-81
2022/04/05 10:17:45;;;;;;;0.10;0.10;;;12.30;99.90;;;;;;4988409;28;20651;-81
2022/04/05 10:20:12;;;;;;;0.47;0.47;;;12.50;99.90;;;;;;4987377;28;20237;-81
2022/04/05 10:22:39;;;;;;;0.40;0.40;;;12.20;99.90;;;;;;4985196;28;20190;-81
2022/04/05 10:25:06;;;;;;;0.30;0.30;;;12.40;99.90;;;;;;4985305;28;20273;-81
2022/04/05 10:27:32;;;;;;;1.80;0.53;;;12.40;99.90;;;;;;4989453;28;20771;-81
2022/04/05 10:30:16;;;;;;;0.53;0.53;;;12.50;99.90;;;;;;4990948;28;20187;-81
2022/04/05 10:33:02;;;;;;;0.30;0.30;;;12.50;99.90;;;;;;4989424;28;20712;-81
2022/04/05 10:35:30;;;;;;;0.07;0.07;;;12.70;99.90;;;;;;4991973;28;20767;-81
2022/04/05 10:38:11;;;;;;;0.20;0.20;;;12.80;99.90;;;;;;4993078;28;20190;-81
2022/04/05 10:40:37;;;;;;;0.10;0.10;;;12.80;99.90;;;;;;4993469;28;20175;-80
2022/04/05 10:43:16;;;;;;;0.10;0.10;;;12.70;99.90;;;;;;4999473;28;20199;-80
2022/04/05 10:45:43;;;;;;;0.30;0.30;;;12.80;99.90;;;;;;4989655;28;20672;-80
2022/04/05 10:48:25;;;;;;;0.40;0.20;;;13.20;99.90;;;;;;4997816;28;20807;-81
2022/04/05 10:51:00;;;;;;;0.50;0.47;;;13.40;99.90;;;;;;4990162;28;20247;-81
2022/04/05 10:54:17;;;;;;;0.20;0.20;;;13.50;99.90;;;;;;4991525;28;20856;-81
2022/04/05 10:56:25;;;;;;;0.40;0.40;;;13.50;99.90;;;;;;4990727;28;20188;-81
2022/04/05 10:58:54;;;;;;;0.20;0.20;;;13.40;99.90;;;;;;4986551;28;20629;-81
2022/04/05 11:01:22;;;;;;;0.20;0.20;;;13.70;99.90;;;;;;4990601;28;20649;-80
2022/04/05 11:04:09;;;;;;;0.30;0.30;;;13.80;99.90;;;;;;4990838;28;20188;-80
2022/04/05 11:07:05;;;;;;;0.30;0.30;;;13.90;99.90;;;;;;4989412;28;20183;-81
2022/04/05 11:09:33;;;;;;;0.20;0.20;;;13.90;99.90;;;;;;4989468;28;20278;-80
2022/04/05 11:12:02;;;;;;;0.30;0.30;;;13.70;99.90;;;;;;4987965;28;20205;-81
2022/04/05 11:14:51;;;;;;;0.20;0.20;;;13.60;99.90;;;;;;4988971;28;20303;-80
2022/04/05 11:17:19;;;;;;;0.20;0.20;;;13.70;99.90;;;;;;4989322;28;20180;-80
2022/04/05 11:19:50;;;;;;;0.27;0.27;;;13.60;99.90;;;;;;4983239;28;20202;-80
2022/04/05 11:22:21;;;;;;;0.17;0.17;;;13.80;99.90;;;;;;5005877;28;20199;-80
2022/04/05 11:24:54;;;;;;;0.30;0.30;;;13.80;99.90;;;;;;4989108;28;20307;-80
2022/04/05 11:27:44;;;;;;;0.30;0.30;;;13.90;99.90;;;;;;4995697;28;20560;-80
2022/04/05 11:30:26;;;;;;;0.47;0.47;;;14.00;99.90;;;;;;5004661;28;21177;-80
2022/04/05 11:33:16;;;;;;;0.47;0.37;;;14.20;99.90;;;;;;4990090;28;20183;-80
2022/04/05 11:35:43;;;;;;;0.20;0.20;;;14.00;99.90;;;;;;4988303;28;20215;-80
2022/04/05 11:38:26;;;;;;;0.20;0.20;;;14.30;99.90;;;;;;4981049;28;20211;-81
2022/04/05 11:41:08;;;;;;;0.20;0.20;;;14.30;99.90;;;;;;4988012;28;20192;-80
2022/04/05 11:43:42;;;;;;;0.10;0.10;;;14.00;99.90;;;;;;4988096;28;20176;-80
2022/04/05 11:46:11;;;;;;;0.40;0.30;;;13.90;99.90;;;;;;5002420;28;20222;-80
2022/04/05 11:48:46;;;;;;;0.27;0.27;;;13.90;99.90;;;;;;4989141;28;20186;-80
2022/04/05 11:51:14;;;;;;;0.63;0.63;;;13.90;99.90;;;;;;4989741;28;21748;-80
2022/04/05 11:53:41;;;;;;;0.60;0.40;;;13.70;99.90;;;;;;4987750;28;20231;-81
2022/04/05 11:56:11;;;;;;;0.53;0.50;;;13.70;99.90;;;;;;4988012;28;20207;-81
2022/04/05 11:58:39;;;;;;;0.40;0.37;;;13.60;99.90;;;;;;4984561;28;20184;-81
2022/04/05 12:01:06;;;;;;;1.33;0.57;;;13.70;99.90;;;;;;4987262;28;20215;-80
2022/04/05 12:03:47;;;;;;;0.30;0.30;;;13.40;99.90;;;;;;4988775;28;20180;-80
2022/04/05 12:06:16;;;;;;;0.43;0.43;;;13.30;99.90;;;;;;4996124;28;20208;-82
2022/04/05 12:08:42;;;;;;;0.20;0.20;;;13.30;99.90;;;;;;4987920;28;20187;-80
2022/04/05 12:11:09;;;;;;;0.33;0.30;;;13.40;99.90;;;;;;4987935;28;20247;-80
2022/04/05 12:13:35;;;;;;;0.10;0.10;;;13.50;99.90;;;;;;4986831;28;20178;-80
2022/04/05 12:16:06;;;;;;;0.20;0.20;;;13.50;99.90;;;;;;4988595;28;20286;-80
2022/04/05 12:18:32;;;;;;;8.63;0.83;;;13.30;99.90;;;;;;4987138;28;20183;-80
2022/04/05 12:21:05;;;;;;;0.30;0.30;;;13.30;99.90;;;;;;4985904;28;20682;-80
2022/04/05 12:23:39;;;;;;;0.43;0.43;;;13.30;99.90;;;;;;4986243;28;20191;-80
2022/04/05 12:26:11;;;;;;;0.87;0.67;;;13.20;99.90;;;;;;4986328;28;20234;-80
2022/04/05 12:28:43;;;;;;;0.20;0.20;;;13.40;99.90;;;;;;4986803;28;20179;-80
2022/04/05 12:31:18;;;;;;;0.10;0.10;;;13.50;99.90;;;;;;4986459;28;20179;-80
2022/04/05 12:34:09;;;;;;;0.10;0.10;;;13.40;99.90;;;;;;4987650;28;20179;-80
2022/04/05 12:36:39;;;;;;;1.10;0.53;;;13.40;99.90;;;;;;5003112;28;20246;-80
2022/04/05 12:39:26;;;;;;;0.23;0.23;;;13.40;99.90;;;;;;4986558;28;20273;-80
2022/04/05 12:41:57;;;;;;;0.40;0.40;;;13.30;99.90;;;;;;4987584;28;20179;-80
2022/04/05 12:44:26;;;;;;;0.30;0.30;;;13.30;99.90;;;;;;4987629;28;20212;-80
2022/04/05 12:47:05;;;;;;;0.20;0.20;;;13.40;99.90;;;;;;4989670;28;20226;-80
2022/04/05 12:49:41;;;;;;;0.70;0.70;;;13.60;99.90;;;;;;4982384;28;20172;-80
2022/04/05 12:52:19;;;;;;;0.20;0.20;;;13.80;99.90;;;;;;4982055;28;20175;-80
2022/04/05 12:54:58;;;;;;;0.40;0.40;;;13.80;99.90;;;;;;4990517;28;20204;-80
2022/04/05 12:57:28;;;;;;;0.20;0.20;;;13.90;99.90;;;;;;4982505;28;20267;-80
2022/04/05 13:00:07;;;;;;;0.50;0.50;;;14.00;99.90;;;;;;4990663;28;20183;-80
2022/04/05 13:02:37;;;;;;;0.20;0.20;;;14.20;99.90;;;;;;4991315;28;20187;-80